메인 페이지
METAR-TAF:

METAR-TAF

공항 :

마이애미 국제공항

마이애미, 플로리다, 미국

위도: 25-47-26N, 경도: 080-18-59W, 고도: 3m

현재 날씨관측

예보는 27분 전, 21:53시(UTC)에 발표되었습니다.
13kt, 순간 최대 풍속 22kt
온도 20°C
습도 56%
기압 1015 hPa
시정: 16.1km
고도 4200ft 상공 구름 보통
고도 25000ft 상공 구름 많음

METAR: KMIA 202153Z 28013G22KT 10SM SCT042 BKN250 20/11 A2998 RMK AO2 SLP153 T02000111

시각: 17:20 (22:20 UTC)

예보

예보는 1 시간 16분 전, 21:04시(UTC)에 발표되었습니다.
예보 대상 시간: 20일 21시부터 21일 24시까지 (UTC)
서북서17kt
시정: 10km
고도 2500ft 상공 구름 보통
고도 3500ft 상공 구름 많음
21일 0000시부터 (UTC)
북북서8kt
시정: 10km
고도 25000ft 상공 구름 보통

TAF: KMIA 202104Z 2021/2124 29017KT P6SM SCT025 BKN035 FM210000 34008KT P6SM SCT250

4,000개 이상의 공항 관측 자료 및 예보 (METAR 및 TAF 보고).

지도상에서 검색 가능한 기상관측소가 노란 점과 빨간 점으로 표시되어 있습니다.

기상관측소 명을 보려면 표시 위로 마우스를 이동하세요.

날씨 관측과 예보를 보려면 클릭하세요.

지도 변경 : 확대하려면 엑스 표시가 있는 녹색 버튼, 축소하려면 빼기 표시가 있는 녹색 버튼, 다음 페이지의 지도를 보려면 녹색 화살표를 클릭하세요.


METAR-TAF: